createdAt,value
2023-02-23T00:00:30.077Z,0.00
2023-02-23T00:01:30.069Z,0.00
2023-02-23T00:02:30.139Z,0.00
2023-02-23T00:03:30.232Z,0.00
2023-02-23T00:04:30.030Z,0.00
2023-02-23T00:05:30.021Z,0.00
2023-02-23T00:06:30.099Z,0.00
2023-02-23T00:07:30.033Z,0.00
2023-02-23T00:08:30.022Z,0.00
2023-02-23T00:09:29.974Z,0.00
2023-02-23T00:10:29.968Z,0.00
2023-02-23T00:11:29.952Z,0.00
2023-02-23T00:12:29.949Z,0.00
2023-02-23T00:13:29.998Z,0.00
2023-02-23T00:14:29.922Z,0.00
2023-02-23T00:15:29.934Z,0.00
2023-02-23T00:16:29.964Z,0.00
2023-02-23T00:17:29.884Z,0.00
2023-02-23T00:18:29.926Z,0.00
2023-02-23T00:19:29.864Z,0.00
2023-02-23T00:20:29.860Z,0.00
2023-02-23T00:21:29.872Z,0.00
2023-02-23T00:22:29.839Z,0.00
2023-02-23T00:23:29.827Z,0.00
2023-02-23T00:24:29.846Z,0.00
2023-02-23T00:25:29.804Z,0.00
2023-02-23T00:26:29.813Z,0.00
2023-02-23T00:27:29.781Z,0.00
2023-02-23T00:28:29.772Z,0.00
2023-02-23T00:29:29.787Z,0.00
2023-02-23T00:30:29.756Z,0.00
2023-02-23T00:31:29.813Z,0.00
2023-02-23T00:32:29.875Z,0.00
2023-02-23T00:33:29.719Z,0.00
2023-02-23T00:34:29.727Z,0.00
2023-02-23T00:35:29.694Z,0.00
2023-02-23T00:36:29.708Z,0.00
2023-02-23T00:37:29.697Z,0.00
2023-02-23T00:38:29.665Z,0.00
2023-02-23T00:39:29.675Z,0.00
2023-02-23T00:40:29.645Z,0.00
2023-02-23T00:41:29.636Z,0.00
2023-02-23T00:42:29.656Z,0.00
2023-02-23T00:43:29.608Z,0.00
2023-02-23T00:44:29.611Z,0.00
2023-02-23T00:45:29.610Z,0.00
2023-02-23T00:46:29.579Z,0.00
2023-02-23T00:47:29.605Z,0.00
2023-02-23T00:48:29.561Z,0.00
2023-02-23T00:49:29.550Z,0.00
2023-02-23T00:50:29.537Z,0.00
2023-02-23T00:51:29.524Z,0.00
2023-02-23T00:52:29.515Z,0.00
2023-02-23T00:53:29.524Z,0.00
2023-02-23T00:54:29.495Z,0.00
2023-02-23T00:55:29.505Z,0.00
2023-02-23T00:56:29.477Z,0.00
2023-02-23T00:57:29.460Z,0.00
2023-02-23T00:58:29.453Z,0.00
2023-02-23T00:59:29.436Z,0.00
2023-02-23T01:00:29.450Z,0.00
2023-02-23T01:01:29.501Z,0.00
2023-02-23T01:02:29.469Z,0.00
2023-02-23T01:03:29.427Z,0.00
2023-02-23T01:04:29.382Z,0.00
2023-02-23T01:05:29.366Z,0.00
2023-02-23T01:06:29.357Z,0.00
2023-02-23T01:07:29.345Z,0.00
2023-02-23T01:08:29.336Z,0.00
2023-02-23T01:09:29.348Z,0.00
2023-02-23T01:10:29.352Z,0.00
2023-02-23T01:11:29.300Z,0.00
2023-02-23T01:12:29.292Z,0.00
2023-02-23T01:13:29.272Z,0.00
2023-02-23T01:14:29.270Z,0.00
2023-02-23T01:15:29.288Z,0.00
2023-02-23T01:16:29.270Z,0.00
2023-02-23T01:17:29.259Z,0.00
2023-02-23T01:18:29.231Z,0.00
2023-02-23T01:19:29.208Z,0.00
2023-02-23T01:20:29.239Z,0.00
2023-02-23T01:21:29.191Z,0.00
2023-02-23T01:22:29.200Z,0.00
2023-02-23T01:23:29.164Z,0.00
2023-02-23T01:24:29.161Z,0.00
2023-02-23T01:25:29.175Z,0.00
2023-02-23T01:26:29.141Z,0.00
2023-02-23T01:27:29.139Z,0.00
2023-02-23T01:28:29.118Z,0.00
2023-02-23T01:29:29.120Z,0.00
2023-02-23T01:30:29.119Z,0.00
2023-02-23T01:31:29.186Z,0.00
2023-02-23T01:32:29.135Z,0.00
2023-02-23T01:33:29.087Z,0.00
2023-02-23T01:34:29.075Z,0.00
2023-02-23T01:35:29.039Z,0.00
2023-02-23T01:36:29.056Z,0.00
2023-02-23T01:37:29.035Z,0.00
2023-02-23T01:38:29.002Z,0.00
2023-02-23T01:39:28.989Z,0.00
2023-02-23T01:40:28.988Z,0.00
2023-02-23T01:41:28.984Z,0.00
2023-02-23T01:42:28.964Z,0.00
2023-02-23T01:43:28.947Z,0.00
2023-02-23T01:44:28.963Z,0.00
2023-02-23T01:45:28.924Z,0.00
2023-02-23T01:46:28.971Z,0.00
2023-02-23T01:47:28.905Z,0.00
2023-02-23T01:48:28.894Z,0.00
2023-02-23T01:49:28.930Z,0.00
2023-02-23T01:50:28.878Z,0.00
2023-02-23T01:51:28.864Z,0.00
2023-02-23T01:52:28.856Z,0.00
2023-02-23T01:53:28.836Z,0.00
2023-02-23T01:54:28.859Z,0.00
2023-02-23T01:55:28.816Z,0.00
2023-02-23T01:56:28.803Z,0.00
2023-02-23T01:57:28.793Z,0.00
2023-02-23T01:58:28.789Z,0.00
2023-02-23T01:59:28.798Z,0.00
2023-02-23T02:00:28.764Z,0.00
2023-02-23T02:01:28.771Z,0.00
2023-02-23T02:02:28.747Z,0.00
2023-02-23T02:03:28.767Z,0.00
2023-02-23T02:04:28.730Z,0.00
2023-02-23T02:05:28.739Z,0.00
2023-02-23T02:06:28.719Z,0.00
2023-02-23T02:07:28.686Z,0.00
2023-02-23T02:08:28.675Z,0.00
2023-02-23T02:09:28.683Z,0.00
2023-02-23T02:10:28.680Z,0.00
2023-02-23T02:11:28.641Z,0.00
2023-02-23T02:12:28.636Z,0.00
2023-02-23T02:13:28.618Z,0.00
2023-02-23T02:14:28.649Z,0.00
2023-02-23T02:15:28.604Z,0.00
2023-02-23T02:16:28.593Z,0.00
2023-02-23T02:17:28.577Z,0.00
2023-02-23T02:18:28.575Z,0.00
2023-02-23T02:19:28.583Z,0.00
2023-02-23T02:20:28.544Z,0.00
2023-02-23T02:21:28.603Z,0.00
2023-02-23T02:22:28.528Z,0.00
2023-02-23T02:23:28.540Z,0.00
2023-02-23T02:24:30.464Z,0.00
2023-02-23T02:25:28.523Z,0.00
2023-02-23T02:26:28.489Z,0.00
2023-02-23T02:27:28.535Z,0.00
2023-02-23T02:28:28.455Z,0.00
2023-02-23T02:29:28.454Z,0.00
2023-02-23T02:30:28.511Z,0.00
2023-02-23T02:31:28.466Z,0.00
2023-02-23T02:32:28.509Z,0.00
2023-02-23T02:33:28.424Z,0.00
2023-02-23T02:34:28.387Z,0.00
2023-02-23T02:35:28.384Z,0.00
2023-02-23T02:36:28.374Z,0.00
2023-02-23T02:37:28.400Z,0.00
2023-02-23T02:38:28.374Z,0.00
2023-02-23T02:39:28.339Z,0.00
2023-02-23T02:40:28.326Z,0.00
2023-02-23T02:41:28.321Z,0.00
2023-02-23T02:42:28.305Z,0.00
2023-02-23T02:43:28.303Z,0.00
2023-02-23T02:44:28.310Z,0.00
2023-02-23T02:45:28.274Z,0.00
2023-02-23T02:46:28.324Z,0.00
2023-02-23T02:47:28.282Z,0.00
2023-02-23T02:48:28.242Z,0.00
2023-02-23T02:49:29.885Z,0.00
2023-02-23T02:50:28.221Z,0.00
2023-02-23T02:51:28.233Z,0.00
2023-02-23T02:52:28.202Z,0.00
2023-02-23T02:53:28.212Z,0.00
2023-02-23T02:54:28.210Z,0.00
2023-02-23T02:55:28.172Z,0.00
2023-02-23T02:56:28.180Z,0.00
2023-02-23T02:57:28.150Z,0.00
2023-02-23T02:58:28.137Z,0.00
2023-02-23T02:59:28.147Z,0.00
2023-02-23T03:00:28.109Z,0.00
2023-02-23T03:01:28.152Z,0.00
2023-02-23T03:02:28.089Z,0.00
2023-02-23T03:03:28.085Z,0.00
2023-02-23T03:04:28.068Z,0.00
2023-02-23T03:05:28.159Z,0.00
2023-02-23T03:06:28.070Z,0.00
2023-02-23T03:07:28.038Z,0.00
2023-02-23T03:08:28.028Z,0.00
2023-02-23T03:09:28.034Z,0.00
2023-02-23T03:10:28.001Z,0.00
2023-02-23T03:11:28.019Z,0.00
2023-02-23T03:12:27.991Z,0.00
2023-02-23T03:13:27.974Z,0.00
2023-02-23T03:14:27.955Z,0.00
2023-02-23T03:15:27.969Z,0.00
2023-02-23T03:16:27.935Z,0.00
2023-02-23T03:17:27.940Z,0.00
2023-02-23T03:18:27.919Z,0.00
2023-02-23T03:19:27.907Z,0.00
2023-02-23T03:20:27.913Z,0.00
2023-02-23T03:21:27.884Z,0.00
2023-02-23T03:22:27.879Z,0.00
2023-02-23T03:23:27.865Z,0.00
2023-02-23T03:24:27.847Z,0.00
2023-02-23T03:25:27.921Z,0.00
2023-02-23T03:26:27.829Z,0.00
2023-02-23T03:27:27.854Z,0.00
2023-02-23T03:28:27.806Z,0.00
2023-02-23T03:29:27.814Z,0.00
2023-02-23T03:30:27.822Z,0.00
2023-02-23T03:31:27.812Z,0.00
2023-02-23T03:32:27.903Z,0.00
2023-02-23T03:33:27.757Z,0.00
2023-02-23T03:34:27.742Z,0.00
2023-02-23T03:35:27.734Z,0.00
2023-02-23T03:36:27.722Z,0.00
2023-02-23T03:37:27.738Z,0.00
2023-02-23T03:38:27.690Z,0.00
2023-02-23T03:39:27.692Z,0.00
2023-02-23T03:40:27.676Z,0.00
2023-02-23T03:41:27.688Z,0.00
2023-02-23T03:42:27.670Z,0.00
2023-02-23T03:43:27.640Z,0.00
2023-02-23T03:44:27.628Z,0.00
2023-02-23T03:45:27.651Z,0.00
2023-02-23T03:46:27.635Z,0.00
2023-02-23T03:47:27.612Z,0.00
2023-02-23T03:48:27.586Z,0.00
2023-02-23T03:49:27.574Z,0.00
2023-02-23T03:50:27.560Z,0.00
2023-02-23T03:51:27.612Z,0.00
2023-02-23T03:52:27.565Z,0.00
2023-02-23T03:53:27.530Z,0.00
2023-02-23T03:54:27.519Z,0.00
2023-02-23T03:55:27.552Z,0.00
2023-02-23T03:56:27.501Z,0.00
2023-02-23T03:57:27.590Z,0.00
2023-02-23T03:58:27.472Z,0.00
2023-02-23T03:59:27.470Z,0.00
2023-02-23T04:00:27.487Z,0.00
2023-02-23T04:01:27.438Z,0.00
2023-02-23T04:02:27.446Z,0.00
2023-02-23T04:03:27.456Z,0.00
2023-02-23T04:04:27.406Z,0.00
2023-02-23T04:05:27.398Z,0.00
2023-02-23T04:06:27.384Z,0.00
2023-02-23T04:07:27.403Z,0.00
2023-02-23T04:08:27.364Z,0.00
2023-02-23T04:09:27.358Z,0.00
2023-02-23T04:10:27.339Z,0.00
2023-02-23T04:11:27.352Z,0.00
2023-02-23T04:12:27.321Z,0.00
2023-02-23T04:13:27.349Z,0.00
2023-02-23T04:14:27.290Z,0.00
2023-02-23T04:15:27.295Z,0.00
2023-02-23T04:16:27.326Z,0.00
2023-02-23T04:17:27.295Z,0.00
2023-02-23T04:18:27.246Z,0.00
2023-02-23T04:19:27.246Z,0.00
2023-02-23T04:20:27.223Z,0.00
2023-02-23T04:21:27.244Z,0.00
2023-02-23T04:22:27.233Z,0.00
2023-02-23T04:23:27.209Z,0.00
2023-02-23T04:24:27.189Z,0.00
2023-02-23T04:25:27.173Z,0.00
2023-02-23T04:26:27.166Z,0.00
2023-02-23T04:27:27.183Z,0.00
2023-02-23T04:28:27.143Z,0.00
2023-02-23T04:29:27.150Z,0.00
2023-02-23T04:30:27.159Z,0.00
2023-02-23T04:31:27.459Z,0.00
2023-02-23T04:32:27.336Z,0.00
2023-02-23T04:33:27.092Z,0.00
2023-02-23T04:34:27.073Z,0.00
2023-02-23T04:35:27.072Z,0.00
2023-02-23T04:36:27.055Z,0.00
2023-02-23T04:37:27.069Z,0.00
2023-02-23T04:38:27.038Z,0.00
2023-02-23T04:39:27.047Z,0.00
2023-02-23T04:40:27.007Z,0.00
2023-02-23T04:41:27.045Z,0.00
2023-02-23T04:42:26.994Z,0.00
2023-02-23T04:43:26.989Z,0.00
2023-02-23T04:44:26.967Z,0.00
2023-02-23T04:45:27.055Z,0.00
2023-02-23T04:46:26.937Z,0.00
2023-02-23T04:47:26.935Z,0.00
2023-02-23T04:48:26.920Z,0.00
2023-02-23T04:49:26.917Z,0.00
2023-02-23T04:50:26.924Z,0.00
2023-02-23T04:51:26.891Z,0.00
2023-02-23T04:52:26.878Z,0.00
2023-02-23T04:53:26.868Z,0.00
2023-02-23T04:54:26.852Z,0.00
2023-02-23T04:55:26.861Z,0.00
2023-02-23T04:56:26.834Z,0.00
2023-02-23T04:57:26.826Z,0.00
2023-02-23T04:58:26.809Z,0.00
2023-02-23T04:59:26.824Z,0.00
2023-02-23T05:00:26.811Z,0.00
2023-02-23T05:01:26.839Z,0.00
2023-02-23T05:02:26.769Z,0.00
2023-02-23T05:03:26.758Z,0.00
2023-02-23T05:04:26.783Z,0.00
2023-02-23T05:05:26.734Z,0.00
2023-02-23T05:06:26.721Z,0.00
2023-02-23T05:07:26.711Z,0.00
2023-02-23T05:08:26.701Z,0.00
2023-02-23T05:09:26.690Z,0.00
2023-02-23T05:10:26.698Z,0.00
2023-02-23T05:11:26.695Z,0.00
2023-02-23T05:12:26.655Z,0.00
2023-02-23T05:13:26.678Z,0.00
2023-02-23T05:14:26.639Z,0.00
2023-02-23T05:15:26.624Z,0.00
2023-02-23T05:16:26.635Z,0.00
2023-02-23T05:17:26.633Z,0.00
2023-02-23T05:18:26.610Z,0.00
2023-02-23T05:19:26.577Z,0.00
2023-02-23T05:20:26.568Z,0.00
2023-02-23T05:21:26.562Z,0.00
2023-02-23T05:22:26.552Z,0.00
2023-02-23T05:23:26.567Z,0.00
2023-02-23T05:24:26.526Z,0.00
2023-02-23T05:25:26.529Z,0.00
2023-02-23T05:26:26.509Z,0.00
2023-02-23T05:27:26.506Z,0.00
2023-02-23T05:28:26.504Z,0.00
2023-02-23T05:29:26.487Z,0.00
2023-02-23T05:30:26.514Z,0.00
2023-02-23T05:31:26.710Z,0.00
2023-02-23T05:32:26.558Z,0.00
2023-02-23T05:33:26.455Z,0.00
2023-02-23T05:34:26.437Z,0.00
2023-02-23T05:35:26.406Z,0.00
2023-02-23T05:36:26.400Z,0.00
2023-02-23T05:37:26.412Z,0.00
2023-02-23T05:38:26.410Z,0.00
2023-02-23T05:39:26.367Z,0.00
2023-02-23T05:40:26.426Z,0.00
2023-02-23T05:41:26.342Z,0.00
2023-02-23T05:42:26.357Z,0.00
2023-02-23T05:43:26.358Z,0.00
2023-02-23T05:44:26.334Z,0.00
2023-02-23T05:45:26.327Z,0.00
2023-02-23T05:46:26.367Z,0.00
2023-02-23T05:47:26.370Z,0.00
2023-02-23T05:48:26.261Z,0.00
2023-02-23T05:49:26.308Z,0.00
2023-02-23T05:50:26.328Z,0.00
2023-02-23T05:51:26.232Z,0.00
2023-02-23T05:52:26.249Z,0.00
2023-02-23T05:53:26.206Z,0.00
2023-02-23T05:54:26.193Z,0.00
2023-02-23T05:55:26.193Z,0.00
2023-02-23T05:56:26.176Z,0.00
2023-02-23T05:57:26.194Z,0.00
2023-02-23T05:58:26.155Z,0.00
2023-02-23T05:59:26.143Z,0.00
2023-02-23T06:00:26.136Z,0.00
2023-02-23T06:01:26.132Z,0.00
2023-02-23T06:02:26.181Z,0.00
2023-02-23T06:03:26.208Z,0.00
2023-02-23T06:04:26.112Z,0.00
2023-02-23T06:05:26.112Z,0.00
2023-02-23T06:06:26.067Z,0.00
2023-02-23T06:07:26.060Z,0.00
2023-02-23T06:08:26.050Z,0.00
2023-02-23T06:09:26.063Z,0.00
2023-02-23T06:10:26.021Z,0.00
2023-02-23T06:11:26.030Z,0.00
2023-02-23T06:12:26.000Z,0.00
2023-02-23T06:13:26.017Z,0.00
2023-02-23T06:14:25.987Z,0.00
2023-02-23T06:15:25.969Z,0.00
2023-02-23T06:16:26.090Z,0.00
2023-02-23T06:17:25.951Z,0.00
2023-02-23T06:18:25.955Z,0.00
2023-02-23T06:19:25.927Z,0.00
2023-02-23T06:20:25.918Z,0.00
2023-02-23T06:21:25.924Z,0.00
2023-02-23T06:22:25.929Z,0.00
2023-02-23T06:23:25.884Z,0.00
2023-02-23T06:24:25.876Z,0.00
2023-02-23T06:25:25.857Z,0.00
2023-02-23T06:26:25.848Z,0.00
2023-02-23T06:27:25.837Z,0.00
2023-02-23T06:28:25.839Z,0.00
2023-02-23T06:29:25.815Z,0.00
2023-02-23T06:30:25.815Z,0.00
2023-02-23T06:31:25.800Z,0.00
2023-02-23T06:32:25.843Z,5.62
2023-02-23T06:33:25.762Z,5.62
2023-02-23T06:34:25.758Z,5.62
2023-02-23T06:35:25.742Z,5.62
2023-02-23T06:36:25.732Z,5.62
2023-02-23T06:37:25.792Z,5.62
2023-02-23T06:38:25.717Z,5.62
2023-02-23T06:39:25.698Z,5.62
2023-02-23T06:40:25.693Z,5.62
2023-02-23T06:41:25.679Z,5.62
2023-02-23T06:42:25.693Z,5.62
2023-02-23T06:43:25.658Z,5.62
2023-02-23T06:44:25.646Z,5.62
2023-02-23T06:45:25.637Z,5.62
2023-02-23T06:46:25.680Z,5.62
2023-02-23T06:47:25.636Z,5.62
2023-02-23T06:48:25.607Z,5.62
2023-02-23T06:49:25.588Z,11.25
2023-02-23T06:50:25.579Z,11.25
2023-02-23T06:51:25.571Z,11.25
2023-02-23T06:52:25.584Z,11.25
2023-02-23T06:53:25.561Z,11.25
2023-02-23T06:54:25.538Z,11.25
2023-02-23T06:55:25.548Z,11.25
2023-02-23T06:56:25.513Z,11.25
2023-02-23T06:57:25.500Z,11.25
2023-02-23T06:58:25.521Z,16.88
2023-02-23T06:59:25.475Z,16.88
2023-02-23T07:00:25.479Z,16.88
2023-02-23T07:01:25.489Z,16.88
2023-02-23T07:02:25.483Z,16.88
2023-02-23T07:03:25.454Z,16.88
2023-02-23T07:04:25.482Z,16.88
2023-02-23T07:05:25.414Z,16.88
2023-02-23T07:06:25.403Z,16.88
2023-02-23T07:07:25.389Z,16.88
2023-02-23T07:08:25.401Z,16.88
2023-02-23T07:09:25.391Z,16.88
2023-02-23T07:10:25.357Z,16.88
2023-02-23T07:11:25.338Z,16.88
2023-02-23T07:12:25.338Z,16.88
2023-02-23T07:13:25.342Z,16.88
2023-02-23T07:14:27.129Z,16.88
2023-02-23T07:15:25.300Z,16.88
2023-02-23T07:16:25.354Z,22.50
2023-02-23T07:17:25.278Z,22.50
2023-02-23T07:18:25.292Z,22.50
2023-02-23T07:19:25.249Z,22.50
2023-02-23T07:20:25.267Z,22.50
2023-02-23T07:21:25.230Z,22.50
2023-02-23T07:22:25.222Z,22.50
2023-02-23T07:23:25.225Z,22.50
2023-02-23T07:24:25.211Z,22.50
2023-02-23T07:25:25.227Z,22.50
2023-02-23T07:26:25.184Z,22.50
2023-02-23T07:27:25.173Z,28.12
2023-02-23T07:28:25.196Z,28.12
2023-02-23T07:29:25.142Z,28.12
2023-02-23T07:30:25.242Z,28.12
2023-02-23T07:31:25.124Z,28.12
2023-02-23T07:32:25.344Z,28.12
2023-02-23T07:33:25.122Z,28.12
2023-02-23T07:34:25.086Z,28.12
2023-02-23T07:35:25.082Z,28.12
2023-02-23T07:36:25.066Z,28.12
2023-02-23T07:37:25.061Z,33.75
2023-02-23T07:38:25.072Z,33.75
2023-02-23T07:39:25.037Z,33.75
2023-02-23T07:40:25.024Z,33.75
2023-02-23T07:41:25.037Z,33.75
2023-02-23T07:42:25.002Z,33.75
2023-02-23T07:43:25.010Z,33.75
2023-02-23T07:44:25.000Z,33.75
2023-02-23T07:45:25.011Z,33.75
2023-02-23T07:46:24.959Z,33.75
2023-02-23T07:47:24.945Z,33.75
2023-02-23T07:48:24.939Z,33.75
2023-02-23T07:49:24.928Z,33.75
2023-02-23T07:50:24.929Z,33.75
2023-02-23T07:51:24.902Z,33.75
2023-02-23T07:52:24.889Z,33.75
2023-02-23T07:53:24.884Z,33.75
2023-02-23T07:54:24.871Z,33.75
2023-02-23T07:55:24.883Z,33.75
2023-02-23T07:56:24.853Z,33.75
2023-02-23T07:57:25.176Z,33.75
2023-02-23T07:58:24.835Z,33.75
2023-02-23T07:59:24.816Z,33.75
2023-02-23T08:00:24.829Z,39.38
2023-02-23T08:01:24.901Z,39.38
2023-02-23T08:02:24.781Z,39.38
2023-02-23T08:03:24.770Z,39.38
2023-02-23T08:04:24.776Z,39.38
2023-02-23T08:05:26.462Z,39.38
2023-02-23T08:06:24.784Z,45.00
2023-02-23T08:07:24.728Z,45.00
2023-02-23T08:08:24.724Z,45.00
2023-02-23T08:09:24.727Z,45.00
2023-02-23T08:10:24.709Z,45.00
2023-02-23T08:11:24.682Z,45.00
2023-02-23T08:12:24.717Z,45.00
2023-02-23T08:13:24.715Z,45.00
2023-02-23T08:14:24.650Z,45.00
2023-02-23T08:15:24.640Z,45.00
2023-02-23T08:16:24.684Z,45.00
2023-02-23T08:17:24.622Z,50.62
2023-02-23T08:18:24.710Z,50.62
2023-02-23T08:19:24.596Z,50.62
2023-02-23T08:20:24.587Z,50.62
2023-02-23T08:21:24.571Z,50.62
2023-02-23T08:22:24.590Z,50.62
2023-02-23T08:23:24.555Z,50.62
2023-02-23T08:24:24.552Z,50.62
2023-02-23T08:25:24.525Z,50.62
2023-02-23T08:26:24.524Z,50.62
2023-02-23T08:27:24.532Z,56.25
2023-02-23T08:28:24.501Z,56.25
2023-02-23T08:29:24.623Z,56.25
2023-02-23T08:30:24.647Z,56.25
2023-02-23T08:31:25.432Z,56.25
2023-02-23T08:32:24.487Z,56.25
2023-02-23T08:33:24.454Z,56.25
2023-02-23T08:34:24.431Z,56.25
2023-02-23T08:35:24.437Z,61.88
2023-02-23T08:36:24.407Z,61.88
2023-02-23T08:37:24.395Z,61.88
2023-02-23T08:38:24.397Z,61.88
2023-02-23T08:39:24.380Z,61.88
2023-02-23T08:40:24.392Z,61.88
2023-02-23T08:41:24.356Z,61.88
2023-02-23T08:42:24.359Z,61.88
2023-02-23T08:43:24.330Z,61.88
2023-02-23T08:44:24.330Z,61.88
2023-02-23T08:45:24.352Z,61.88
2023-02-23T08:46:24.347Z,61.88
2023-02-23T08:47:24.362Z,61.88
2023-02-23T08:48:24.282Z,61.88
2023-02-23T08:49:24.262Z,61.88
2023-02-23T08:50:27.046Z,61.88
2023-02-23T08:51:24.266Z,61.88
2023-02-23T08:52:24.249Z,61.88
2023-02-23T08:53:24.217Z,61.88
2023-02-23T08:54:24.215Z,61.88
2023-02-23T08:55:24.199Z,61.88
2023-02-23T08:56:24.194Z,61.88
2023-02-23T08:57:24.207Z,61.88
2023-02-23T08:58:24.169Z,61.88
2023-02-23T08:59:24.158Z,61.88
2023-02-23T09:00:24.254Z,61.88
2023-02-23T09:01:24.171Z,61.88
2023-02-23T09:02:24.147Z,61.88
2023-02-23T09:03:24.106Z,61.88
2023-02-23T09:04:24.099Z,61.88
2023-02-23T09:05:24.086Z,61.88
2023-02-23T09:06:24.083Z,61.88
2023-02-23T09:07:24.069Z,61.88
2023-02-23T09:08:24.077Z,61.88
2023-02-23T09:09:24.042Z,61.88
2023-02-23T09:10:24.126Z,61.88
2023-02-23T09:11:24.022Z,61.88
2023-02-23T09:12:24.010Z,61.88
2023-02-23T09:13:24.035Z,61.88
2023-02-23T09:14:23.991Z,61.88
2023-02-23T09:15:23.982Z,61.88
2023-02-23T09:16:23.970Z,61.88
2023-02-23T09:17:24.060Z,61.88
2023-02-23T09:18:23.988Z,67.50
2023-02-23T09:19:23.936Z,67.50
2023-02-23T09:20:23.941Z,67.50
2023-02-23T09:21:23.941Z,67.50
2023-02-23T09:22:23.900Z,67.50
2023-02-23T09:23:23.896Z,73.12
2023-02-23T09:24:23.925Z,73.12
2023-02-23T09:25:23.876Z,73.12
2023-02-23T09:26:23.908Z,73.12
2023-02-23T09:27:23.866Z,78.75
2023-02-23T09:28:23.865Z,78.75
2023-02-23T09:29:23.824Z,78.75
2023-02-23T09:30:23.992Z,78.75
2023-02-23T09:31:24.349Z,84.38
2023-02-23T09:32:23.969Z,84.38
2023-02-23T09:33:23.865Z,84.38
2023-02-23T09:34:23.775Z,84.38
2023-02-23T09:35:23.760Z,84.38
2023-02-23T09:36:23.762Z,90.00
2023-02-23T09:37:23.735Z,90.00
2023-02-23T09:38:23.756Z,90.00
2023-02-23T09:39:37.041Z,90.00
2023-02-23T09:40:24.707Z,90.00
2023-02-23T09:41:23.691Z,95.62
2023-02-23T09:42:23.688Z,95.62
2023-02-23T09:43:23.696Z,95.62
2023-02-23T09:44:23.695Z,101.25
2023-02-23T09:45:23.651Z,101.25
2023-02-23T09:46:23.673Z,101.25
2023-02-23T09:47:23.682Z,101.25
2023-02-23T09:48:23.663Z,101.25
2023-02-23T09:49:23.777Z,101.25
2023-02-23T09:50:23.631Z,101.25
2023-02-23T09:51:23.586Z,101.25
2023-02-23T09:52:23.589Z,101.25
2023-02-23T09:53:23.605Z,101.25
2023-02-23T09:54:23.556Z,106.88
2023-02-23T09:55:23.537Z,101.25
2023-02-23T09:56:23.540Z,101.25
2023-02-23T09:57:23.532Z,101.25
2023-02-23T09:58:23.517Z,101.25
2023-02-23T09:59:23.527Z,106.88
2023-02-23T10:00:23.492Z,106.88
2023-02-23T10:01:23.499Z,106.88
2023-02-23T10:02:23.485Z,106.88
2023-02-23T10:03:23.491Z,112.50
2023-02-23T10:04:23.633Z,112.50
2023-02-23T10:05:23.469Z,112.50
2023-02-23T10:06:23.431Z,112.50
2023-02-23T10:07:23.412Z,118.12
2023-02-23T10:08:23.428Z,118.12
2023-02-23T10:09:23.408Z,118.12
2023-02-23T10:10:23.552Z,123.75
2023-02-23T10:11:23.394Z,118.12
2023-02-23T10:12:23.361Z,118.12
2023-02-23T10:13:23.361Z,118.12
2023-02-23T10:14:23.367Z,123.75
2023-02-23T10:15:23.328Z,123.75
2023-02-23T10:16:23.318Z,123.75
2023-02-23T10:17:23.302Z,118.12
2023-02-23T10:18:24.630Z,118.12
2023-02-23T10:19:23.299Z,118.12
2023-02-23T10:20:23.279Z,118.12
2023-02-23T10:21:23.300Z,118.12
2023-02-23T10:22:23.268Z,123.75
2023-02-23T10:23:23.256Z,123.75
2023-02-23T10:24:23.230Z,123.75
2023-02-23T10:25:23.217Z,123.75
2023-02-23T10:26:23.225Z,129.38
2023-02-23T10:27:23.194Z,135.00
2023-02-23T10:28:23.190Z,129.38
2023-02-23T10:29:23.190Z,123.75
2023-02-23T10:30:23.191Z,123.75
2023-02-23T10:31:23.617Z,118.12
2023-02-23T10:32:23.218Z,123.75
2023-02-23T10:33:23.133Z,118.12
2023-02-23T10:34:23.658Z,112.50
2023-02-23T10:35:23.127Z,112.50
2023-02-23T10:36:23.095Z,112.50
2023-02-23T10:37:23.163Z,112.50
2023-02-23T10:38:24.264Z,118.12
2023-02-23T10:39:23.066Z,118.12
2023-02-23T10:40:23.063Z,123.75
2023-02-23T10:41:23.041Z,112.50
2023-02-23T10:42:23.062Z,118.12
2023-02-23T10:43:23.015Z,129.38
2023-02-23T10:44:23.024Z,135.00
2023-02-23T10:45:23.200Z,135.00
2023-02-23T10:46:23.049Z,135.00
2023-02-23T10:47:22.995Z,135.00
2023-02-23T10:48:23.027Z,135.00
2023-02-23T10:49:22.982Z,129.38
2023-02-23T10:50:22.994Z,129.38
2023-02-23T10:51:22.944Z,129.38
2023-02-23T10:52:22.952Z,129.38
2023-02-23T10:53:22.960Z,129.38
2023-02-23T10:54:22.905Z,129.38
2023-02-23T10:55:22.909Z,129.38
2023-02-23T10:56:22.877Z,129.38
2023-02-23T10:57:22.890Z,129.38
2023-02-23T10:58:22.854Z,123.75
2023-02-23T10:59:22.849Z,123.75
2023-02-23T11:00:22.835Z,123.75
2023-02-23T11:01:23.479Z,123.75
2023-02-23T11:02:22.920Z,123.75
2023-02-23T11:03:22.834Z,123.75
2023-02-23T11:04:22.845Z,123.75
2023-02-23T11:05:22.783Z,123.75
2023-02-23T11:06:22.768Z,123.75
2023-02-23T11:07:22.778Z,123.75
2023-02-23T11:08:22.772Z,118.12
2023-02-23T11:09:26.942Z,118.12
2023-02-23T11:10:23.721Z,118.12
2023-02-23T11:11:23.150Z,118.12
2023-02-23T11:12:22.816Z,118.12
2023-02-23T11:13:22.690Z,118.12
2023-02-23T11:14:22.673Z,118.12
2023-02-23T11:15:22.669Z,118.12
2023-02-23T11:16:22.740Z,118.12
2023-02-23T11:17:22.665Z,123.75
2023-02-23T11:18:22.666Z,123.75
2023-02-23T11:19:22.635Z,123.75
2023-02-23T11:20:22.608Z,123.75
2023-02-23T11:21:22.603Z,123.75
2023-02-23T11:22:22.615Z,129.38
2023-02-23T11:23:22.582Z,123.75
2023-02-23T11:24:22.672Z,123.75
2023-02-23T11:25:22.584Z,123.75
2023-02-23T11:26:22.564Z,118.12
2023-02-23T11:27:22.668Z,118.12
2023-02-23T11:28:22.536Z,118.12
2023-02-23T11:29:22.510Z,112.50
2023-02-23T11:30:22.518Z,112.50
2023-02-23T11:31:22.842Z,112.50
2023-02-23T11:32:22.630Z,112.50
2023-02-23T11:33:22.471Z,112.50
2023-02-23T11:34:22.460Z,112.50
2023-02-23T11:35:22.473Z,112.50
2023-02-23T11:36:22.428Z,112.50
2023-02-23T11:37:22.429Z,112.50
2023-02-23T11:38:22.418Z,112.50
2023-02-23T11:39:22.412Z,112.50
2023-02-23T11:40:22.408Z,112.50
2023-02-23T11:41:22.411Z,112.50
2023-02-23T11:42:22.368Z,112.50
2023-02-23T11:43:22.358Z,112.50
2023-02-23T11:44:22.366Z,112.50
2023-02-23T11:45:22.370Z,112.50
2023-02-23T11:46:23.011Z,118.12
2023-02-23T11:47:22.318Z,118.12
2023-02-23T11:48:22.304Z,118.12
2023-02-23T11:49:22.323Z,118.12
2023-02-23T11:50:22.282Z,118.12
2023-02-23T11:51:22.275Z,118.12
2023-02-23T11:52:22.282Z,118.12
2023-02-23T11:53:22.255Z,118.12
2023-02-23T11:54:22.283Z,118.12
2023-02-23T11:55:22.231Z,118.12
2023-02-23T11:56:22.351Z,118.12
2023-02-23T11:57:22.229Z,118.12
2023-02-23T11:58:22.200Z,118.12
2023-02-23T11:59:22.206Z,118.12
2023-02-23T12:00:22.176Z,112.50
2023-02-23T12:01:22.171Z,118.12
2023-02-23T12:02:22.155Z,118.12
2023-02-23T12:03:22.218Z,118.12
2023-02-23T12:04:22.132Z,118.12
2023-02-23T12:05:22.125Z,118.12
2023-02-23T12:06:22.495Z,118.12
2023-02-23T12:07:22.104Z,118.12
2023-02-23T12:08:22.109Z,112.50
2023-02-23T12:09:22.081Z,106.88
2023-02-23T12:10:22.109Z,106.88
2023-02-23T12:11:22.054Z,106.88
2023-02-23T12:12:22.039Z,101.25
2023-02-23T12:13:22.087Z,101.25
2023-02-23T12:14:22.017Z,101.25
2023-02-23T12:15:22.012Z,106.88
2023-02-23T12:16:22.382Z,106.88
2023-02-23T12:17:21.993Z,106.88
2023-02-23T12:18:21.999Z,106.88
2023-02-23T12:19:21.962Z,112.50
2023-02-23T12:20:21.956Z,112.50
2023-02-23T12:21:21.944Z,112.50
2023-02-23T12:22:21.930Z,118.12
2023-02-23T12:23:21.942Z,118.12
2023-02-23T12:24:21.910Z,118.12
2023-02-23T12:25:21.902Z,118.12
2023-02-23T12:26:21.892Z,118.12
2023-02-23T12:27:21.876Z,112.50
2023-02-23T12:28:21.879Z,112.50
2023-02-23T12:29:22.001Z,112.50
2023-02-23T12:30:21.840Z,112.50
2023-02-23T12:31:21.883Z,112.50
2023-02-23T12:32:22.010Z,106.88
2023-02-23T12:33:21.856Z,106.88
2023-02-23T12:34:21.878Z,106.88
2023-02-23T12:35:21.790Z,101.25
2023-02-23T12:36:22.036Z,101.25
2023-02-23T12:37:21.773Z,101.25
2023-02-23T12:38:21.772Z,95.62
2023-02-23T12:39:21.767Z,95.62
2023-02-23T12:40:21.729Z,95.62
2023-02-23T12:41:21.723Z,95.62
2023-02-23T12:42:21.724Z,95.62
2023-02-23T12:43:21.711Z,95.62
2023-02-23T12:44:21.884Z,95.62
2023-02-23T12:45:21.750Z,90.00
2023-02-23T12:46:22.182Z,95.62
2023-02-23T12:47:21.732Z,95.62
2023-02-23T12:48:21.636Z,95.62
2023-02-23T12:49:21.662Z,95.62
2023-02-23T12:50:21.621Z,95.62
2023-02-23T12:51:21.608Z,90.00
2023-02-23T12:52:21.600Z,95.62
2023-02-23T12:53:21.641Z,90.00
2023-02-23T12:54:21.596Z,90.00
2023-02-23T12:55:21.564Z,90.00
2023-02-23T12:56:21.738Z,90.00
2023-02-23T12:57:21.564Z,95.62
2023-02-23T12:58:21.561Z,101.25
2023-02-23T12:59:21.526Z,101.25
2023-02-23T13:00:21.507Z,101.25